sensor_id;sensor_type;location;lat;lon;timestamp;P1;durP1;ratioP1;P2;durP2;ratioP2
16667;SDS011;8447;52.630;4.734;2022-10-26T00:01:06;7.77;;;2.73;;
16667;SDS011;8447;52.630;4.734;2022-10-26T00:03:33;4.13;;;2.70;;
16667;SDS011;8447;52.630;4.734;2022-10-26T00:06:03;7.97;;;3.30;;
16667;SDS011;8447;52.630;4.734;2022-10-26T00:08:30;6.10;;;3.37;;
16667;SDS011;8447;52.630;4.734;2022-10-26T00:10:56;5.20;;;2.73;;
16667;SDS011;8447;52.630;4.734;2022-10-26T00:13:25;3.43;;;2.77;;
16667;SDS011;8447;52.630;4.734;2022-10-26T00:15:51;3.63;;;2.40;;
16667;SDS011;8447;52.630;4.734;2022-10-26T00:18:17;5.00;;;3.03;;
16667;SDS011;8447;52.630;4.734;2022-10-26T00:20:44;5.00;;;2.90;;
16667;SDS011;8447;52.630;4.734;2022-10-26T00:23:10;6.00;;;3.20;;
16667;SDS011;8447;52.630;4.734;2022-10-26T00:25:37;5.37;;;3.10;;
16667;SDS011;8447;52.630;4.734;2022-10-26T00:28:03;9.20;;;2.97;;
16667;SDS011;8447;52.630;4.734;2022-10-26T00:30:31;9.00;;;2.60;;
16667;SDS011;8447;52.630;4.734;2022-10-26T00:32:57;5.07;;;2.87;;
16667;SDS011;8447;52.630;4.734;2022-10-26T00:35:24;6.20;;;2.97;;
16667;SDS011;8447;52.630;4.734;2022-10-26T00:37:52;7.83;;;2.60;;
16667;SDS011;8447;52.630;4.734;2022-10-26T00:40:19;6.63;;;2.80;;
16667;SDS011;8447;52.630;4.734;2022-10-26T00:42:45;7.87;;;2.97;;
16667;SDS011;8447;52.630;4.734;2022-10-26T00:45:17;3.80;;;2.33;;
16667;SDS011;8447;52.630;4.734;2022-10-26T00:47:46;6.70;;;2.80;;
16667;SDS011;8447;52.630;4.734;2022-10-26T00:50:14;7.73;;;2.83;;
16667;SDS011;8447;52.630;4.734;2022-10-26T00:52:43;4.37;;;2.40;;
16667;SDS011;8447;52.630;4.734;2022-10-26T00:55:09;6.17;;;3.23;;
16667;SDS011;8447;52.630;4.734;2022-10-26T00:57:36;6.30;;;2.73;;
16667;SDS011;8447;52.630;4.734;2022-10-26T01:00:04;4.60;;;3.00;;
16667;SDS011;8447;52.630;4.734;2022-10-26T01:02:30;4.87;;;2.63;;
16667;SDS011;8447;52.630;4.734;2022-10-26T01:04:58;5.63;;;2.60;;
16667;SDS011;8447;52.630;4.734;2022-10-26T01:07:26;3.33;;;2.60;;
16667;SDS011;8447;52.630;4.734;2022-10-26T01:09:52;7.53;;;2.90;;
16667;SDS011;8447;52.630;4.734;2022-10-26T01:12:19;4.33;;;2.20;;
16667;SDS011;8447;52.630;4.734;2022-10-26T01:14:46;6.80;;;2.97;;
16667;SDS011;8447;52.630;4.734;2022-10-26T01:17:19;6.50;;;3.00;;
16667;SDS011;8447;52.630;4.734;2022-10-26T01:22:39;3.87;;;2.53;;
16667;SDS011;8447;52.630;4.734;2022-10-26T01:25:11;3.57;;;2.30;;
16667;SDS011;8447;52.630;4.734;2022-10-26T01:27:39;5.97;;;3.00;;
16667;SDS011;8447;52.630;4.734;2022-10-26T01:30:15;3.43;;;2.40;;
16667;SDS011;8447;52.630;4.734;2022-10-26T01:32:44;6.27;;;3.10;;
16667;SDS011;8447;52.630;4.734;2022-10-26T01:35:12;8.10;;;3.10;;
16667;SDS011;8447;52.630;4.734;2022-10-26T01:37:40;5.33;;;2.43;;
16667;SDS011;8447;52.630;4.734;2022-10-26T01:40:09;6.00;;;2.60;;
16667;SDS011;8447;52.630;4.734;2022-10-26T01:42:39;6.77;;;2.80;;
16667;SDS011;8447;52.630;4.734;2022-10-26T01:45:07;4.03;;;2.40;;
16667;SDS011;8447;52.630;4.734;2022-10-26T01:47:36;5.37;;;2.70;;
16667;SDS011;8447;52.630;4.734;2022-10-26T01:50:04;3.93;;;2.77;;
16667;SDS011;8447;52.630;4.734;2022-10-26T01:52:31;5.53;;;2.93;;
16667;SDS011;8447;52.630;4.734;2022-10-26T01:55:00;6.27;;;2.40;;
16667;SDS011;8447;52.630;4.734;2022-10-26T01:57:27;4.23;;;2.63;;
16667;SDS011;8447;52.630;4.734;2022-10-26T02:00:07;3.90;;;2.77;;
16667;SDS011;8447;52.630;4.734;2022-10-26T02:02:54;5.07;;;2.50;;
16667;SDS011;8447;52.630;4.734;2022-10-26T02:05:30;5.93;;;2.50;;
16667;SDS011;8447;52.630;4.734;2022-10-26T02:08:00;6.77;;;3.13;;
16667;SDS011;8447;52.630;4.734;2022-10-26T02:10:31;4.97;;;2.23;;
16667;SDS011;8447;52.630;4.734;2022-10-26T02:13:04;5.50;;;2.93;;
16667;SDS011;8447;52.630;4.734;2022-10-26T02:15:35;4.70;;;2.00;;
16667;SDS011;8447;52.630;4.734;2022-10-26T02:18:06;5.50;;;2.63;;
16667;SDS011;8447;52.630;4.734;2022-10-26T02:20:39;4.77;;;2.37;;
16667;SDS011;8447;52.630;4.734;2022-10-26T02:23:08;4.43;;;2.23;;
16667;SDS011;8447;52.630;4.734;2022-10-26T02:25:38;4.63;;;2.10;;
16667;SDS011;8447;52.630;4.734;2022-10-26T02:28:06;4.63;;;2.33;;
16667;SDS011;8447;52.630;4.734;2022-10-26T02:30:34;3.97;;;2.60;;
16667;SDS011;8447;52.630;4.734;2022-10-26T02:33:01;4.57;;;2.40;;
16667;SDS011;8447;52.630;4.734;2022-10-26T02:35:30;4.93;;;2.23;;
16667;SDS011;8447;52.630;4.734;2022-10-26T02:37:58;5.13;;;2.53;;
16667;SDS011;8447;52.630;4.734;2022-10-26T02:40:26;3.43;;;2.77;;
16667;SDS011;8447;52.630;4.734;2022-10-26T02:42:54;4.73;;;2.90;;
16667;SDS011;8447;52.630;4.734;2022-10-26T02:45:22;3.33;;;2.00;;
16667;SDS011;8447;52.630;4.734;2022-10-26T02:47:49;5.40;;;2.17;;
16667;SDS011;8447;52.630;4.734;2022-10-26T02:50:16;5.27;;;2.50;;
16667;SDS011;8447;52.630;4.734;2022-10-26T02:52:46;6.40;;;3.00;;
16667;SDS011;8447;52.630;4.734;2022-10-26T02:55:15;4.70;;;2.57;;
16667;SDS011;8447;52.630;4.734;2022-10-26T02:57:43;3.37;;;2.27;;
16667;SDS011;8447;52.630;4.734;2022-10-26T03:00:13;5.63;;;2.80;;
16667;SDS011;8447;52.630;4.734;2022-10-26T03:02:40;4.30;;;2.93;;
16667;SDS011;8447;52.630;4.734;2022-10-26T03:05:08;3.13;;;2.43;;
16667;SDS011;8447;52.630;4.734;2022-10-26T03:07:35;6.20;;;2.97;;
16667;SDS011;8447;52.630;4.734;2022-10-26T03:10:03;4.20;;;2.90;;
16667;SDS011;8447;52.630;4.734;2022-10-26T03:12:30;4.70;;;3.03;;
16667;SDS011;8447;52.630;4.734;2022-10-26T03:14:56;7.87;;;3.13;;
16667;SDS011;8447;52.630;4.734;2022-10-26T03:17:22;4.67;;;2.93;;
16667;SDS011;8447;52.630;4.734;2022-10-26T03:19:49;6.97;;;3.23;;
16667;SDS011;8447;52.630;4.734;2022-10-26T03:22:15;4.23;;;2.73;;
16667;SDS011;8447;52.630;4.734;2022-10-26T03:24:41;4.03;;;3.07;;
16667;SDS011;8447;52.630;4.734;2022-10-26T03:27:09;3.67;;;2.90;;
16667;SDS011;8447;52.630;4.734;2022-10-26T03:29:35;3.30;;;2.97;;
16667;SDS011;8447;52.630;4.734;2022-10-26T03:32:02;5.97;;;3.30;;
16667;SDS011;8447;52.630;4.734;2022-10-26T03:34:28;6.03;;;2.97;;
16667;SDS011;8447;52.630;4.734;2022-10-26T03:36:55;4.87;;;2.70;;
16667;SDS011;8447;52.630;4.734;2022-10-26T03:39:21;4.60;;;2.93;;
16667;SDS011;8447;52.630;4.734;2022-10-26T03:41:47;5.33;;;2.80;;
16667;SDS011;8447;52.630;4.734;2022-10-26T03:44:15;11.23;;;3.00;;
16667;SDS011;8447;52.630;4.734;2022-10-26T03:46:42;3.33;;;2.23;;
16667;SDS011;8447;52.630;4.734;2022-10-26T03:49:08;4.63;;;2.87;;
16667;SDS011;8447;52.630;4.734;2022-10-26T03:51:34;4.60;;;3.57;;
16667;SDS011;8447;52.630;4.734;2022-10-26T03:54:02;4.80;;;3.70;;
16667;SDS011;8447;52.630;4.734;2022-10-26T03:56:28;6.13;;;3.17;;
16667;SDS011;8447;52.630;4.734;2022-10-26T03:58:54;3.87;;;3.27;;
16667;SDS011;8447;52.630;4.734;2022-10-26T04:01:22;5.90;;;3.63;;
16667;SDS011;8447;52.630;4.734;2022-10-26T04:03:49;3.63;;;2.73;;
16667;SDS011;8447;52.630;4.734;2022-10-26T04:06:15;3.53;;;2.60;;
16667;SDS011;8447;52.630;4.734;2022-10-26T04:08:41;5.50;;;3.00;;
16667;SDS011;8447;52.630;4.734;2022-10-26T04:11:08;5.90;;;3.40;;
16667;SDS011;8447;52.630;4.734;2022-10-26T04:13:34;4.03;;;2.70;;
16667;SDS011;8447;52.630;4.734;2022-10-26T04:16:00;5.67;;;2.87;;
16667;SDS011;8447;52.630;4.734;2022-10-26T04:18:28;6.30;;;3.20;;
16667;SDS011;8447;52.630;4.734;2022-10-26T04:20:54;3.87;;;3.03;;
16667;SDS011;8447;52.630;4.734;2022-10-26T04:23:21;4.73;;;2.40;;
16667;SDS011;8447;52.630;4.734;2022-10-26T04:25:47;8.20;;;3.60;;
16667;SDS011;8447;52.630;4.734;2022-10-26T04:28:13;8.57;;;2.47;;
16667;SDS011;8447;52.630;4.734;2022-10-26T04:30:40;7.90;;;3.23;;
16667;SDS011;8447;52.630;4.734;2022-10-26T04:33:06;4.90;;;2.60;;
16667;SDS011;8447;52.630;4.734;2022-10-26T04:35:34;3.57;;;2.30;;
16667;SDS011;8447;52.630;4.734;2022-10-26T04:38:01;4.07;;;2.90;;
16667;SDS011;8447;52.630;4.734;2022-10-26T04:40:28;6.13;;;2.30;;
16667;SDS011;8447;52.630;4.734;2022-10-26T04:42:55;5.10;;;2.80;;
16667;SDS011;8447;52.630;4.734;2022-10-26T04:45:21;2.33;;;1.93;;
16667;SDS011;8447;52.630;4.734;2022-10-26T04:47:57;3.67;;;2.17;;
16667;SDS011;8447;52.630;4.734;2022-10-26T04:50:23;3.80;;;2.40;;
16667;SDS011;8447;52.630;4.734;2022-10-26T04:52:51;7.67;;;2.57;;
16667;SDS011;8447;52.630;4.734;2022-10-26T04:55:17;3.50;;;2.17;;
16667;SDS011;8447;52.630;4.734;2022-10-26T04:57:44;6.93;;;2.27;;
16667;SDS011;8447;52.630;4.734;2022-10-26T05:00:10;6.27;;;2.67;;
16667;SDS011;8447;52.630;4.734;2022-10-26T05:02:37;5.33;;;2.30;;
16667;SDS011;8447;52.630;4.734;2022-10-26T05:05:03;7.23;;;2.30;;
16667;SDS011;8447;52.630;4.734;2022-10-26T05:07:30;7.47;;;2.53;;
16667;SDS011;8447;52.630;4.734;2022-10-26T05:09:57;5.03;;;2.77;;
16667;SDS011;8447;52.630;4.734;2022-10-26T05:12:24;3.50;;;2.30;;
16667;SDS011;8447;52.630;4.734;2022-10-26T05:14:50;2.97;;;2.30;;
16667;SDS011;8447;52.630;4.734;2022-10-26T05:17:16;5.00;;;2.60;;
16667;SDS011;8447;52.630;4.734;2022-10-26T05:19:43;3.90;;;2.50;;
16667;SDS011;8447;52.630;4.734;2022-10-26T05:22:16;4.67;;;2.40;;
16667;SDS011;8447;52.630;4.734;2022-10-26T05:24:43;3.67;;;2.40;;
16667;SDS011;8447;52.630;4.734;2022-10-26T05:27:10;8.00;;;2.60;;
16667;SDS011;8447;52.630;4.734;2022-10-26T05:29:37;4.63;;;2.43;;
16667;SDS011;8447;52.630;4.734;2022-10-26T05:32:03;7.80;;;2.47;;
16667;SDS011;8447;52.630;4.734;2022-10-26T05:34:30;5.80;;;2.93;;
16667;SDS011;8447;52.630;4.734;2022-10-26T05:36:56;5.87;;;2.37;;
16667;SDS011;8447;52.630;4.734;2022-10-26T05:39:22;5.47;;;2.80;;
16667;SDS011;8447;52.630;4.734;2022-10-26T05:41:49;6.00;;;2.50;;
16667;SDS011;8447;52.630;4.734;2022-10-26T05:44:16;5.87;;;2.60;;
16667;SDS011;8447;52.630;4.734;2022-10-26T05:46:43;5.37;;;2.70;;
16667;SDS011;8447;52.630;4.734;2022-10-26T05:49:11;6.23;;;2.97;;
16667;SDS011;8447;52.630;4.734;2022-10-26T05:51:37;4.97;;;3.20;;
16667;SDS011;8447;52.630;4.734;2022-10-26T05:54:04;5.17;;;2.67;;
16667;SDS011;8447;52.630;4.734;2022-10-26T05:56:34;4.03;;;2.70;;
16667;SDS011;8447;52.630;4.734;2022-10-26T05:59:00;5.30;;;2.50;;
16667;SDS011;8447;52.630;4.734;2022-10-26T06:01:30;5.80;;;2.50;;
16667;SDS011;8447;52.630;4.734;2022-10-26T06:04:04;5.97;;;2.90;;
16667;SDS011;8447;52.630;4.734;2022-10-26T06:06:36;2.37;;;2.17;;
16667;SDS011;8447;52.630;4.734;2022-10-26T06:09:03;5.50;;;2.83;;
16667;SDS011;8447;52.630;4.734;2022-10-26T06:11:29;6.27;;;2.40;;
16667;SDS011;8447;52.630;4.734;2022-10-26T06:13:56;4.40;;;2.40;;
16667;SDS011;8447;52.630;4.734;2022-10-26T06:16:27;2.70;;;1.97;;
16667;SDS011;8447;52.630;4.734;2022-10-26T06:18:58;3.40;;;2.20;;
16667;SDS011;8447;52.630;4.734;2022-10-26T06:21:30;4.60;;;2.37;;
16667;SDS011;8447;52.630;4.734;2022-10-26T06:24:01;3.47;;;2.07;;
16667;SDS011;8447;52.630;4.734;2022-10-26T06:26:32;3.97;;;1.97;;
16667;SDS011;8447;52.630;4.734;2022-10-26T06:29:02;3.57;;;1.57;;
16667;SDS011;8447;52.630;4.734;2022-10-26T06:31:32;3.87;;;1.80;;
16667;SDS011;8447;52.630;4.734;2022-10-26T06:34:00;2.67;;;1.80;;
16667;SDS011;8447;52.630;4.734;2022-10-26T06:36:26;4.07;;;1.90;;
16667;SDS011;8447;52.630;4.734;2022-10-26T06:38:54;4.37;;;1.70;;
16667;SDS011;8447;52.630;4.734;2022-10-26T06:41:21;4.33;;;1.83;;
16667;SDS011;8447;52.630;4.734;2022-10-26T06:43:48;5.30;;;1.97;;
16667;SDS011;8447;52.630;4.734;2022-10-26T06:46:17;4.97;;;1.80;;
16667;SDS011;8447;52.630;4.734;2022-10-26T06:48:48;3.63;;;1.67;;
16667;SDS011;8447;52.630;4.734;2022-10-26T06:51:18;3.43;;;2.47;;
16667;SDS011;8447;52.630;4.734;2022-10-26T06:53:46;1.77;;;1.50;;
16667;SDS011;8447;52.630;4.734;2022-10-26T06:56:15;2.50;;;1.37;;
16667;SDS011;8447;52.630;4.734;2022-10-26T06:58:41;6.03;;;2.13;;
16667;SDS011;8447;52.630;4.734;2022-10-26T07:01:09;6.37;;;1.90;;
16667;SDS011;8447;52.630;4.734;2022-10-26T07:03:36;5.37;;;1.80;;
16667;SDS011;8447;52.630;4.734;2022-10-26T07:06:02;2.67;;;1.53;;
16667;SDS011;8447;52.630;4.734;2022-10-26T07:08:30;5.20;;;1.77;;
16667;SDS011;8447;52.630;4.734;2022-10-26T07:10:57;2.60;;;1.40;;
16667;SDS011;8447;52.630;4.734;2022-10-26T07:13:23;7.23;;;2.40;;
16667;SDS011;8447;52.630;4.734;2022-10-26T07:15:49;3.37;;;1.43;;
16667;SDS011;8447;52.630;4.734;2022-10-26T07:18:15;3.17;;;1.67;;
16667;SDS011;8447;52.630;4.734;2022-10-26T07:20:42;5.87;;;1.73;;
16667;SDS011;8447;52.630;4.734;2022-10-26T07:23:08;9.50;;;1.90;;
16667;SDS011;8447;52.630;4.734;2022-10-26T07:25:37;3.03;;;1.63;;
16667;SDS011;8447;52.630;4.734;2022-10-26T07:28:04;7.03;;;1.90;;
16667;SDS011;8447;52.630;4.734;2022-10-26T07:30:32;4.83;;;1.60;;
16667;SDS011;8447;52.630;4.734;2022-10-26T07:32:58;3.37;;;1.50;;
16667;SDS011;8447;52.630;4.734;2022-10-26T07:35:25;9.13;;;2.07;;
16667;SDS011;8447;52.630;4.734;2022-10-26T07:37:54;6.90;;;1.90;;
16667;SDS011;8447;52.630;4.734;2022-10-26T07:40:21;3.63;;;1.77;;
16667;SDS011;8447;52.630;4.734;2022-10-26T07:42:48;5.60;;;1.83;;
16667;SDS011;8447;52.630;4.734;2022-10-26T07:45:15;7.97;;;1.87;;
16667;SDS011;8447;52.630;4.734;2022-10-26T07:47:41;4.57;;;1.70;;
16667;SDS011;8447;52.630;4.734;2022-10-26T07:50:08;4.13;;;1.73;;
16667;SDS011;8447;52.630;4.734;2022-10-26T07:52:36;7.43;;;1.80;;
16667;SDS011;8447;52.630;4.734;2022-10-26T07:55:03;5.67;;;1.60;;
16667;SDS011;8447;52.630;4.734;2022-10-26T07:57:29;3.47;;;1.70;;
16667;SDS011;8447;52.630;4.734;2022-10-26T07:59:57;4.03;;;1.17;;
16667;SDS011;8447;52.630;4.734;2022-10-26T08:02:23;4.50;;;1.80;;
16667;SDS011;8447;52.630;4.734;2022-10-26T08:04:49;2.90;;;1.47;;
16667;SDS011;8447;52.630;4.734;2022-10-26T08:07:16;6.53;;;2.00;;
16667;SDS011;8447;52.630;4.734;2022-10-26T08:09:42;3.60;;;1.80;;
16667;SDS011;8447;52.630;4.734;2022-10-26T08:12:08;4.13;;;1.30;;
16667;SDS011;8447;52.630;4.734;2022-10-26T08:14:37;6.00;;;1.70;;
16667;SDS011;8447;52.630;4.734;2022-10-26T08:17:05;3.33;;;1.47;;
16667;SDS011;8447;52.630;4.734;2022-10-26T08:19:31;3.70;;;1.83;;
16667;SDS011;8447;52.630;4.734;2022-10-26T08:21:57;5.23;;;2.00;;
16667;SDS011;8447;52.630;4.734;2022-10-26T08:24:24;4.17;;;1.93;;
16667;SDS011;8447;52.630;4.734;2022-10-26T08:26:50;3.73;;;1.43;;
16667;SDS011;8447;52.630;4.734;2022-10-26T08:29:17;5.40;;;1.90;;
16667;SDS011;8447;52.630;4.734;2022-10-26T08:31:43;8.83;;;1.80;;
16667;SDS011;8447;52.630;4.734;2022-10-26T08:34:11;6.40;;;2.00;;
16667;SDS011;8447;52.630;4.734;2022-10-26T08:36:37;4.57;;;1.83;;
16667;SDS011;8447;52.630;4.734;2022-10-26T08:39:03;6.07;;;2.17;;
16667;SDS011;8447;52.630;4.734;2022-10-26T08:41:32;5.90;;;1.80;;
16667;SDS011;8447;52.630;4.734;2022-10-26T08:44:00;3.57;;;1.83;;
16667;SDS011;8447;52.630;4.734;2022-10-26T08:46:29;4.80;;;1.90;;
16667;SDS011;8447;52.630;4.734;2022-10-26T08:48:59;4.37;;;1.83;;
16667;SDS011;8447;52.630;4.734;2022-10-26T08:51:29;4.20;;;1.83;;
16667;SDS011;8447;52.630;4.734;2022-10-26T08:53:59;3.23;;;1.60;;
16667;SDS011;8447;52.630;4.734;2022-10-26T08:56:31;3.30;;;2.00;;
16667;SDS011;8447;52.630;4.734;2022-10-26T08:59:02;3.70;;;1.80;;
16667;SDS011;8447;52.630;4.734;2022-10-26T09:01:32;4.43;;;2.00;;
16667;SDS011;8447;52.630;4.734;2022-10-26T09:03:59;6.63;;;1.97;;
16667;SDS011;8447;52.630;4.734;2022-10-26T09:06:27;3.17;;;1.97;;
16667;SDS011;8447;52.630;4.734;2022-10-26T09:09:01;6.43;;;2.00;;
16667;SDS011;8447;52.630;4.734;2022-10-26T09:11:34;8.03;;;1.90;;
16667;SDS011;8447;52.630;4.734;2022-10-26T09:14:03;3.47;;;1.90;;
16667;SDS011;8447;52.630;4.734;2022-10-26T09:16:36;3.37;;;1.53;;
16667;SDS011;8447;52.630;4.734;2022-10-26T09:19:13;5.97;;;2.20;;
16667;SDS011;8447;52.630;4.734;2022-10-26T09:21:46;5.33;;;1.90;;
16667;SDS011;8447;52.630;4.734;2022-10-26T09:24:17;5.53;;;2.20;;
16667;SDS011;8447;52.630;4.734;2022-10-26T09:26:51;5.77;;;2.10;;
16667;SDS011;8447;52.630;4.734;2022-10-26T09:29:18;5.07;;;2.03;;
16667;SDS011;8447;52.630;4.734;2022-10-26T09:31:46;3.93;;;2.00;;
16667;SDS011;8447;52.630;4.734;2022-10-26T09:34:16;8.37;;;2.30;;
16667;SDS011;8447;52.630;4.734;2022-10-26T09:36:43;6.90;;;2.07;;
16667;SDS011;8447;52.630;4.734;2022-10-26T09:39:11;5.17;;;2.17;;
16667;SDS011;8447;52.630;4.734;2022-10-26T09:41:40;7.93;;;1.80;;
16667;SDS011;8447;52.630;4.734;2022-10-26T09:44:10;2.23;;;1.50;;
16667;SDS011;8447;52.630;4.734;2022-10-26T09:46:42;4.87;;;1.80;;
16667;SDS011;8447;52.630;4.734;2022-10-26T09:49:10;7.97;;;1.87;;
16667;SDS011;8447;52.630;4.734;2022-10-26T09:51:37;8.43;;;1.60;;
16667;SDS011;8447;52.630;4.734;2022-10-26T09:54:08;7.17;;;2.20;;
16667;SDS011;8447;52.630;4.734;2022-10-26T09:56:38;4.87;;;1.93;;
16667;SDS011;8447;52.630;4.734;2022-10-26T09:59:07;7.70;;;2.07;;
16667;SDS011;8447;52.630;4.734;2022-10-26T10:01:35;3.07;;;1.70;;
16667;SDS011;8447;52.630;4.734;2022-10-26T10:04:09;4.83;;;1.60;;
16667;SDS011;8447;52.630;4.734;2022-10-26T10:06:36;5.20;;;1.80;;
16667;SDS011;8447;52.630;4.734;2022-10-26T10:09:05;6.90;;;1.63;;
16667;SDS011;8447;52.630;4.734;2022-10-26T10:11:38;5.60;;;1.70;;
16667;SDS011;8447;52.630;4.734;2022-10-26T10:14:07;6.30;;;2.07;;
16667;SDS011;8447;52.630;4.734;2022-10-26T10:16:33;3.07;;;1.33;;
16667;SDS011;8447;52.630;4.734;2022-10-26T10:19:00;2.97;;;1.50;;
16667;SDS011;8447;52.630;4.734;2022-10-26T10:21:32;7.53;;;1.77;;
16667;SDS011;8447;52.630;4.734;2022-10-26T10:23:58;7.33;;;1.53;;
16667;SDS011;8447;52.630;4.734;2022-10-26T10:26:25;3.17;;;1.63;;
16667;SDS011;8447;52.630;4.734;2022-10-26T10:28:55;4.57;;;1.70;;
16667;SDS011;8447;52.630;4.734;2022-10-26T10:31:26;5.37;;;1.50;;
16667;SDS011;8447;52.630;4.734;2022-10-26T10:33:52;3.80;;;1.50;;
16667;SDS011;8447;52.630;4.734;2022-10-26T10:36:20;7.37;;;1.57;;
16667;SDS011;8447;52.630;4.734;2022-10-26T10:38:48;5.87;;;1.80;;
16667;SDS011;8447;52.630;4.734;2022-10-26T10:41:15;3.80;;;1.60;;
16667;SDS011;8447;52.630;4.734;2022-10-26T10:43:43;4.70;;;1.50;;
16667;SDS011;8447;52.630;4.734;2022-10-26T10:46:09;8.63;;;1.80;;
16667;SDS011;8447;52.630;4.734;2022-10-26T10:48:46;6.70;;;1.43;;
16667;SDS011;8447;52.630;4.734;2022-10-26T10:51:16;4.83;;;2.30;;
16667;SDS011;8447;52.630;4.734;2022-10-26T10:53:44;4.40;;;1.67;;
16667;SDS011;8447;52.630;4.734;2022-10-26T10:56:14;4.50;;;1.50;;
16667;SDS011;8447;52.630;4.734;2022-10-26T10:58:45;5.17;;;1.50;;
16667;SDS011;8447;52.630;4.734;2022-10-26T11:01:16;3.57;;;1.47;;
16667;SDS011;8447;52.630;4.734;2022-10-26T11:03:48;7.57;;;1.80;;
16667;SDS011;8447;52.630;4.734;2022-10-26T11:06:18;5.50;;;1.60;;
16667;SDS011;8447;52.630;4.734;2022-10-26T11:08:46;5.57;;;1.73;;
16667;SDS011;8447;52.630;4.734;2022-10-26T11:11:15;7.87;;;1.70;;
16667;SDS011;8447;52.630;4.734;2022-10-26T11:13:44;7.13;;;1.67;;
16667;SDS011;8447;52.630;4.734;2022-10-26T11:16:13;5.07;;;1.60;;
16667;SDS011;8447;52.630;4.734;2022-10-26T11:18:42;2.77;;;1.50;;
16667;SDS011;8447;52.630;4.734;2022-10-26T11:21:14;9.00;;;1.83;;
16667;SDS011;8447;52.630;4.734;2022-10-26T11:23:43;6.23;;;2.10;;
16667;SDS011;8447;52.630;4.734;2022-10-26T11:26:11;8.80;;;1.60;;
16667;SDS011;8447;52.630;4.734;2022-10-26T11:28:39;7.13;;;1.47;;
16667;SDS011;8447;52.630;4.734;2022-10-26T11:31:12;5.93;;;1.60;;
16667;SDS011;8447;52.630;4.734;2022-10-26T11:33:39;9.00;;;2.27;;
16667;SDS011;8447;52.630;4.734;2022-10-26T11:36:07;5.27;;;1.70;;
16667;SDS011;8447;52.630;4.734;2022-10-26T11:38:37;6.07;;;1.60;;
16667;SDS011;8447;52.630;4.734;2022-10-26T11:41:07;3.33;;;1.17;;
16667;SDS011;8447;52.630;4.734;2022-10-26T11:43:37;4.97;;;1.60;;
16667;SDS011;8447;52.630;4.734;2022-10-26T11:46:05;4.70;;;1.60;;
16667;SDS011;8447;52.630;4.734;2022-10-26T11:48:35;5.57;;;1.30;;
16667;SDS011;8447;52.630;4.734;2022-10-26T11:51:04;7.17;;;1.17;;
16667;SDS011;8447;52.630;4.734;2022-10-26T11:53:35;6.83;;;1.40;;
16667;SDS011;8447;52.630;4.734;2022-10-26T11:56:07;7.10;;;1.63;;
16667;SDS011;8447;52.630;4.734;2022-10-26T11:58:36;14.33;;;1.70;;
16667;SDS011;8447;52.630;4.734;2022-10-26T12:01:03;5.20;;;1.50;;
16667;SDS011;8447;52.630;4.734;2022-10-26T12:03:33;6.77;;;1.53;;
16667;SDS011;8447;52.630;4.734;2022-10-26T12:06:01;3.43;;;1.10;;
16667;SDS011;8447;52.630;4.734;2022-10-26T12:08:29;3.10;;;1.40;;
16667;SDS011;8447;52.630;4.734;2022-10-26T12:10:57;4.47;;;1.10;;
16667;SDS011;8447;52.630;4.734;2022-10-26T12:13:29;6.20;;;1.77;;
16667;SDS011;8447;52.630;4.734;2022-10-26T12:15:59;4.47;;;1.47;;
16667;SDS011;8447;52.630;4.734;2022-10-26T12:18:29;3.57;;;1.50;;
16667;SDS011;8447;52.630;4.734;2022-10-26T12:20:59;9.25;;;1.50;;
16667;SDS011;8447;52.630;4.734;2022-10-26T12:23:28;5.03;;;1.20;;
16667;SDS011;8447;52.630;4.734;2022-10-26T12:28:51;7.60;;;2.03;;
16667;SDS011;8447;52.630;4.734;2022-10-26T12:31:42;10.47;;;1.73;;
16667;SDS011;8447;52.630;4.734;2022-10-26T12:34:12;7.03;;;1.63;;
16667;SDS011;8447;52.630;4.734;2022-10-26T12:36:48;8.57;;;2.53;;
16667;SDS011;8447;52.630;4.734;2022-10-26T12:39:28;6.63;;;1.53;;
16667;SDS011;8447;52.630;4.734;2022-10-26T12:41:55;10.70;;;1.90;;
16667;SDS011;8447;52.630;4.734;2022-10-26T12:44:32;8.10;;;3.03;;
16667;SDS011;8447;52.630;4.734;2022-10-26T12:47:00;6.17;;;1.60;;
16667;SDS011;8447;52.630;4.734;2022-10-26T12:52:17;6.70;;;1.10;;
16667;SDS011;8447;52.630;4.734;2022-10-26T12:54:45;4.63;;;1.50;;
16667;SDS011;8447;52.630;4.734;2022-10-26T12:57:16;5.37;;;1.20;;
16667;SDS011;8447;52.630;4.734;2022-10-26T12:59:45;4.40;;;1.23;;
16667;SDS011;8447;52.630;4.734;2022-10-26T13:02:31;3.97;;;1.60;;
16667;SDS011;8447;52.630;4.734;2022-10-26T13:07:44;5.23;;;0.97;;
16667;SDS011;8447;52.630;4.734;2022-10-26T13:15:51;7.80;;;1.20;;
16667;SDS011;8447;52.630;4.734;2022-10-26T13:18:19;5.60;;;2.17;;
16667;SDS011;8447;52.630;4.734;2022-10-26T13:20:53;7.57;;;1.83;;
16667;SDS011;8447;52.630;4.734;2022-10-26T13:23:24;9.40;;;1.57;;
16667;SDS011;8447;52.630;4.734;2022-10-26T13:26:01;5.10;;;1.30;;
16667;SDS011;8447;52.630;4.734;2022-10-26T13:28:31;7.57;;;1.47;;
16667;SDS011;8447;52.630;4.734;2022-10-26T13:30:58;6.67;;;1.00;;
16667;SDS011;8447;52.630;4.734;2022-10-26T13:33:28;9.17;;;1.40;;
16667;SDS011;8447;52.630;4.734;2022-10-26T13:35:57;4.03;;;1.43;;
16667;SDS011;8447;52.630;4.734;2022-10-26T13:38:24;6.90;;;0.97;;
16667;SDS011;8447;52.630;4.734;2022-10-26T13:40:56;7.67;;;1.53;;
16667;SDS011;8447;52.630;4.734;2022-10-26T13:43:25;4.40;;;1.47;;
16667;SDS011;8447;52.630;4.734;2022-10-26T13:45:53;4.40;;;1.07;;
16667;SDS011;8447;52.630;4.734;2022-10-26T13:48:22;5.87;;;1.20;;
16667;SDS011;8447;52.630;4.734;2022-10-26T13:50:53;6.70;;;1.40;;
16667;SDS011;8447;52.630;4.734;2022-10-26T13:53:21;5.63;;;1.53;;
16667;SDS011;8447;52.630;4.734;2022-10-26T13:55:49;5.53;;;1.93;;
16667;SDS011;8447;52.630;4.734;2022-10-26T13:58:17;4.50;;;1.03;;
16667;SDS011;8447;52.630;4.734;2022-10-26T14:03:33;6.27;;;1.10;;
16667;SDS011;8447;52.630;4.734;2022-10-26T14:06:00;5.43;;;0.97;;
16667;SDS011;8447;52.630;4.734;2022-10-26T14:08:29;4.60;;;1.20;;
16667;SDS011;8447;52.630;4.734;2022-10-26T14:10:56;4.53;;;1.60;;
16667;SDS011;8447;52.630;4.734;2022-10-26T14:13:23;7.00;;;1.20;;
16667;SDS011;8447;52.630;4.734;2022-10-26T14:15:51;10.70;;;1.50;;
16667;SDS011;8447;52.630;4.734;2022-10-26T14:18:19;5.57;;;1.30;;
16667;SDS011;8447;52.630;4.734;2022-10-26T14:20:48;9.73;;;1.37;;
16667;SDS011;8447;52.630;4.734;2022-10-26T14:23:27;4.27;;;1.10;;
16667;SDS011;8447;52.630;4.734;2022-10-26T14:25:53;4.83;;;1.40;;
16667;SDS011;8447;52.630;4.734;2022-10-26T14:28:21;4.83;;;1.00;;
16667;SDS011;8447;52.630;4.734;2022-10-26T14:30:47;4.30;;;1.33;;
16667;SDS011;8447;52.630;4.734;2022-10-26T14:33:18;7.47;;;1.20;;
16667;SDS011;8447;52.630;4.734;2022-10-26T14:35:45;5.37;;;1.30;;
16667;SDS011;8447;52.630;4.734;2022-10-26T14:38:13;6.63;;;1.10;;
16667;SDS011;8447;52.630;4.734;2022-10-26T14:40:42;7.03;;;1.20;;
16667;SDS011;8447;52.630;4.734;2022-10-26T14:43:10;4.67;;;0.93;;
16667;SDS011;8447;52.630;4.734;2022-10-26T14:45:40;3.70;;;1.07;;
16667;SDS011;8447;52.630;4.734;2022-10-26T14:48:17;4.80;;;0.90;;
16667;SDS011;8447;52.630;4.734;2022-10-26T14:50:55;4.33;;;1.10;;
16667;SDS011;8447;52.630;4.734;2022-10-26T14:53:22;4.23;;;1.13;;
16667;SDS011;8447;52.630;4.734;2022-10-26T14:55:50;6.10;;;1.30;;
16667;SDS011;8447;52.630;4.734;2022-10-26T14:58:17;2.10;;;0.80;;
16667;SDS011;8447;52.630;4.734;2022-10-26T15:00:45;9.97;;;1.17;;
16667;SDS011;8447;52.630;4.734;2022-10-26T15:03:13;4.10;;;0.90;;
16667;SDS011;8447;52.630;4.734;2022-10-26T15:05:40;4.40;;;0.90;;
16667;SDS011;8447;52.630;4.734;2022-10-26T15:10:49;4.17;;;1.00;;
16667;SDS011;8447;52.630;4.734;2022-10-26T15:13:20;5.57;;;1.37;;
16667;SDS011;8447;52.630;4.734;2022-10-26T15:15:49;8.50;;;1.63;;
16667;SDS011;8447;52.630;4.734;2022-10-26T15:18:17;6.83;;;0.93;;
16667;SDS011;8447;52.630;4.734;2022-10-26T15:20:45;8.97;;;1.57;;
16667;SDS011;8447;52.630;4.734;2022-10-26T15:23:11;2.83;;;1.13;;
16667;SDS011;8447;52.630;4.734;2022-10-26T15:25:38;6.73;;;1.70;;
16667;SDS011;8447;52.630;4.734;2022-10-26T15:28:10;3.10;;;0.73;;
16667;SDS011;8447;52.630;4.734;2022-10-26T15:30:36;6.40;;;1.33;;